createdAt,value
2022-11-25T00:01:26.717Z,2.16
2022-11-25T00:03:54.444Z,2.16
2022-11-25T00:06:22.375Z,2.09
2022-11-25T00:08:51.068Z,2.09
2022-11-25T00:11:17.735Z,2.11
2022-11-25T00:13:44.506Z,2.11
2022-11-25T00:16:12.532Z,2.06
2022-11-25T00:18:39.084Z,2.03
2022-11-25T00:21:10.951Z,2.10
2022-11-25T00:23:37.413Z,2.15
2022-11-25T00:26:10.909Z,2.13
2022-11-25T00:28:37.633Z,2.12
2022-11-25T00:31:07.805Z,2.09
2022-11-25T00:33:34.164Z,2.10
2022-11-25T00:36:02.402Z,2.11
2022-11-25T00:38:28.892Z,2.11
2022-11-25T00:41:13.528Z,2.09
2022-11-25T00:43:58.577Z,2.09
2022-11-25T00:46:24.965Z,2.17
2022-11-25T00:48:51.384Z,2.20
2022-11-25T00:51:18.267Z,2.20
2022-11-25T00:53:44.808Z,2.20
2022-11-25T00:56:14.053Z,2.19
2022-11-25T00:58:43.729Z,2.16
2022-11-25T01:01:10.482Z,2.11
2022-11-25T01:03:37.176Z,2.07
2022-11-25T01:06:08.257Z,2.03
2022-11-25T01:08:34.877Z,2.02
2022-11-25T01:11:06.262Z,2.02
2022-11-25T01:13:32.846Z,1.99
2022-11-25T01:16:03.312Z,1.99
2022-11-25T01:18:29.758Z,1.99
2022-11-25T01:20:56.121Z,1.97
2022-11-25T01:23:22.501Z,1.98
2022-11-25T01:25:48.894Z,1.97
2022-11-25T01:28:15.276Z,1.98
2022-11-25T01:30:41.673Z,1.98
2022-11-25T01:33:08.022Z,1.96
2022-11-25T01:35:37.526Z,1.95
2022-11-25T01:38:03.999Z,1.94
2022-11-25T01:40:30.351Z,1.93
2022-11-25T01:42:56.718Z,1.89
2022-11-25T01:45:26.596Z,1.88
2022-11-25T01:47:57.190Z,1.87
2022-11-25T01:50:23.804Z,1.88
2022-11-25T01:52:50.934Z,1.86
2022-11-25T01:55:26.582Z,1.88
2022-11-25T01:57:57.410Z,1.88
2022-11-25T02:00:23.773Z,1.95
2022-11-25T02:02:50.777Z,2.02
2022-11-25T02:05:18.632Z,2.09
2022-11-25T02:07:46.420Z,2.09
2022-11-25T02:10:15.687Z,2.15
2022-11-25T02:12:43.083Z,2.21
2022-11-25T02:15:10.068Z,2.22
2022-11-25T02:17:36.423Z,2.28
2022-11-25T02:20:06.435Z,2.28
2022-11-25T02:22:51.063Z,2.23
2022-11-25T02:25:17.594Z,2.21
2022-11-25T02:27:44.567Z,2.20
2022-11-25T02:30:11.239Z,2.17
2022-11-25T02:32:43.443Z,2.18
2022-11-25T02:35:29.348Z,2.21
2022-11-25T02:37:58.972Z,2.18
2022-11-25T02:40:25.882Z,2.18
2022-11-25T02:42:52.238Z,2.13
2022-11-25T02:45:20.066Z,2.13
2022-11-25T02:47:46.398Z,2.08
2022-11-25T02:50:13.817Z,2.05
2022-11-25T02:52:40.251Z,2.04
2022-11-25T02:55:07.026Z,2.03
2022-11-25T02:57:33.428Z,2.01
2022-11-25T02:59:59.763Z,1.99
2022-11-25T03:02:26.151Z,1.96
2022-11-25T03:04:52.507Z,1.92
2022-11-25T03:07:18.984Z,1.89
2022-11-25T03:09:45.374Z,1.85
2022-11-25T03:12:20.813Z,1.86
2022-11-25T03:14:47.680Z,1.83
2022-11-25T03:17:14.341Z,1.81
2022-11-25T03:19:40.705Z,1.80
2022-11-25T03:22:07.178Z,1.78
2022-11-25T03:24:33.868Z,1.79
2022-11-25T03:27:01.635Z,1.77
2022-11-25T03:29:27.967Z,1.80
2022-11-25T03:31:54.415Z,1.80
2022-11-25T03:34:20.841Z,1.79
2022-11-25T03:36:47.272Z,1.77
2022-11-25T03:39:13.695Z,1.74
2022-11-25T03:41:40.039Z,1.75
2022-11-25T03:44:06.406Z,1.75
2022-11-25T03:46:32.777Z,1.77
2022-11-25T03:48:59.198Z,1.80
2022-11-25T03:51:25.683Z,1.82
2022-11-25T03:53:52.053Z,1.82
2022-11-25T03:56:18.382Z,1.81
2022-11-25T03:58:44.765Z,1.77
2022-11-25T04:01:11.144Z,1.74
2022-11-25T04:03:37.563Z,1.76
2022-11-25T04:06:03.925Z,1.75
2022-11-25T04:08:30.355Z,1.76
2022-11-25T04:10:56.731Z,1.75
2022-11-25T04:13:23.078Z,1.80
2022-11-25T04:15:50.516Z,1.75
2022-11-25T04:18:17.457Z,1.78
2022-11-25T04:20:44.002Z,1.78
2022-11-25T04:23:10.640Z,1.82
2022-11-25T04:25:37.198Z,1.84
2022-11-25T04:28:03.884Z,1.86
2022-11-25T04:30:30.381Z,1.88
2022-11-25T04:32:56.812Z,1.86
2022-11-25T04:35:23.222Z,1.87
2022-11-25T04:37:49.615Z,1.89
2022-11-25T04:40:16.070Z,1.89
2022-11-25T04:42:42.508Z,1.92
2022-11-25T04:45:25.657Z,1.93
2022-11-25T04:47:52.076Z,1.92
2022-11-25T04:50:20.241Z,1.92
2022-11-25T04:52:46.600Z,1.90
2022-11-25T04:55:12.950Z,1.88
2022-11-25T04:57:39.311Z,1.88
2022-11-25T05:00:06.289Z,1.89
2022-11-25T05:02:32.724Z,1.89
2022-11-25T05:04:59.119Z,1.88
2022-11-25T05:07:27.132Z,1.92
2022-11-25T05:09:53.540Z,1.91
2022-11-25T05:12:22.508Z,1.94
2022-11-25T05:14:49.183Z,1.95
2022-11-25T05:17:17.532Z,1.98
2022-11-25T05:19:44.205Z,2.01
2022-11-25T05:22:12.367Z,2.03
2022-11-25T05:24:38.735Z,2.01
2022-11-25T05:27:05.514Z,1.98
2022-11-25T05:29:31.887Z,2.01
2022-11-25T05:31:58.275Z,1.96
2022-11-25T05:34:24.665Z,1.96
2022-11-25T05:36:51.922Z,1.99
2022-11-25T05:39:18.588Z,2.01
2022-11-25T05:41:44.970Z,1.99
2022-11-25T05:44:11.339Z,1.98
2022-11-25T05:46:37.754Z,1.98
2022-11-25T05:49:04.115Z,1.93
2022-11-25T05:51:30.751Z,1.90
2022-11-25T05:53:57.277Z,1.90
2022-11-25T05:56:23.735Z,1.93
2022-11-25T05:58:50.175Z,1.93
2022-11-25T06:01:17.219Z,1.88
2022-11-25T06:03:43.680Z,1.83
2022-11-25T06:06:10.200Z,1.80
2022-11-25T06:08:36.968Z,1.81
2022-11-25T06:11:09.278Z,1.79
2022-11-25T06:13:35.678Z,1.81
2022-11-25T06:16:17.585Z,1.84
2022-11-25T06:18:43.989Z,1.82
2022-11-25T06:21:10.701Z,1.81
2022-11-25T06:23:37.149Z,1.80
2022-11-25T06:26:12.667Z,1.78
2022-11-25T06:28:39.045Z,1.73
2022-11-25T06:31:10.095Z,1.74
2022-11-25T06:33:36.564Z,1.71
2022-11-25T06:36:07.854Z,1.73
2022-11-25T06:38:34.549Z,1.70
2022-11-25T06:41:02.287Z,1.73
2022-11-25T06:43:29.084Z,1.76
2022-11-25T06:45:55.592Z,1.73
2022-11-25T06:48:21.937Z,1.77
2022-11-25T06:50:56.633Z,1.77
2022-11-25T06:53:24.353Z,1.81
2022-11-25T06:56:01.923Z,1.87
2022-11-25T06:58:35.796Z,1.89
2022-11-25T07:01:03.583Z,1.97
2022-11-25T07:03:30.114Z,2.03
2022-11-25T07:05:58.167Z,2.08
2022-11-25T07:08:29.487Z,2.11
2022-11-25T07:11:06.142Z,2.18
2022-11-25T07:13:32.675Z,2.22
2022-11-25T07:16:06.012Z,2.27
2022-11-25T07:18:33.242Z,2.33
2022-11-25T07:21:10.366Z,2.29
2022-11-25T07:23:37.292Z,2.37
2022-11-25T07:26:05.156Z,2.41
2022-11-25T07:28:31.586Z,2.45
2022-11-25T07:31:23.661Z,2.50
2022-11-25T07:33:52.196Z,2.55
2022-11-25T07:36:18.617Z,2.60
2022-11-25T07:38:46.724Z,2.64
2022-11-25T07:41:15.019Z,2.75
2022-11-25T07:43:46.289Z,2.83
2022-11-25T07:46:21.981Z,2.90
2022-11-25T07:48:50.011Z,2.96
2022-11-25T07:51:35.381Z,3.00
2022-11-25T07:54:02.578Z,3.09
2022-11-25T07:56:28.951Z,3.15
2022-11-25T07:58:55.963Z,3.19
2022-11-25T08:01:22.412Z,3.23
2022-11-25T08:03:50.021Z,3.29
2022-11-25T08:06:19.397Z,3.34
2022-11-25T08:08:46.030Z,3.38
2022-11-25T08:11:17.503Z,3.40
2022-11-25T08:13:44.187Z,3.43
2022-11-25T08:16:11.738Z,3.43
2022-11-25T08:18:38.279Z,3.49
2022-11-25T08:21:06.088Z,3.54
2022-11-25T08:23:33.256Z,3.56
2022-11-25T08:26:12.712Z,3.60
2022-11-25T08:28:39.389Z,3.67
2022-11-25T08:31:08.192Z,3.73
2022-11-25T08:33:34.671Z,3.78
2022-11-25T08:36:01.102Z,3.84
2022-11-25T08:38:27.923Z,3.89
2022-11-25T08:40:54.417Z,3.94
2022-11-25T08:43:25.071Z,3.99
2022-11-25T08:45:55.502Z,4.05
2022-11-25T08:48:21.906Z,4.12
2022-11-25T08:50:50.640Z,4.18
2022-11-25T08:53:17.046Z,4.25
2022-11-25T08:55:43.454Z,4.33
2022-11-25T08:58:10.033Z,4.38
2022-11-25T09:00:43.228Z,4.45
2022-11-25T09:03:09.983Z,4.51
2022-11-25T09:05:40.394Z,4.58
2022-11-25T09:08:07.118Z,4.64
2022-11-25T09:10:33.839Z,4.75
2022-11-25T09:13:00.266Z,4.85
2022-11-25T09:15:26.804Z,4.95
2022-11-25T09:18:00.640Z,5.00
2022-11-25T09:20:27.343Z,5.04
2022-11-25T09:22:53.832Z,5.08
2022-11-25T09:25:21.356Z,5.11
2022-11-25T09:27:47.982Z,5.16
2022-11-25T09:30:14.832Z,5.19
2022-11-25T09:32:41.242Z,5.23
2022-11-25T09:35:07.970Z,5.27
2022-11-25T09:37:34.590Z,5.30
2022-11-25T09:40:00.927Z,5.32
2022-11-25T09:43:07.333Z,5.35
2022-11-25T09:46:06.339Z,5.43
2022-11-25T09:48:56.564Z,5.47
2022-11-25T09:51:26.765Z,5.52
2022-11-25T09:54:06.988Z,5.54
2022-11-25T09:56:53.536Z,5.60
2022-11-25T09:59:22.227Z,5.65
2022-11-25T10:01:58.862Z,5.73
2022-11-25T10:04:38.061Z,5.80
2022-11-25T10:07:05.052Z,5.89
2022-11-25T10:09:33.109Z,5.96
2022-11-25T10:12:29.430Z,6.01
2022-11-25T10:14:59.914Z,6.06
2022-11-25T10:17:35.493Z,6.13
2022-11-25T10:20:18.643Z,6.20
2022-11-25T10:22:52.971Z,6.25
2022-11-25T10:25:24.837Z,6.30
2022-11-25T10:28:04.475Z,6.39
2022-11-25T10:31:03.477Z,6.47
2022-11-25T10:33:39.375Z,6.56
2022-11-25T10:36:28.542Z,6.63
2022-11-25T10:39:03.989Z,6.65
2022-11-25T10:41:32.628Z,6.72
2022-11-25T10:43:59.034Z,6.74
2022-11-25T10:46:57.096Z,6.78
2022-11-25T10:49:47.157Z,6.86
2022-11-25T10:52:13.944Z,6.92
2022-11-25T10:54:40.875Z,6.93
2022-11-25T10:57:20.338Z,6.94
2022-11-25T10:59:59.576Z,6.96
2022-11-25T11:02:29.827Z,6.98
2022-11-25T11:05:08.873Z,7.02
2022-11-25T11:07:38.500Z,7.04
2022-11-25T11:10:24.231Z,7.03
2022-11-25T11:13:00.916Z,7.04
2022-11-25T11:15:54.563Z,7.06
2022-11-25T11:18:23.095Z,7.05
2022-11-25T11:20:51.417Z,7.04
2022-11-25T11:23:17.851Z,7.06
2022-11-25T11:25:57.926Z,7.05
2022-11-25T11:28:32.828Z,7.08
2022-11-25T11:31:18.416Z,7.10
2022-11-25T11:33:48.234Z,7.12
2022-11-25T11:36:39.432Z,7.12
2022-11-25T11:39:38.181Z,7.12
2022-11-25T11:42:16.845Z,7.14
2022-11-25T11:45:02.587Z,7.14
2022-11-25T11:47:51.668Z,7.15
2022-11-25T11:50:29.532Z,7.18
2022-11-25T11:53:14.710Z,7.17
2022-11-25T11:56:33.469Z,7.20
2022-11-25T11:59:06.673Z,7.25
2022-11-25T12:01:55.602Z,7.27
2022-11-25T12:04:29.359Z,7.27
2022-11-25T12:07:09.396Z,7.30
2022-11-25T12:09:39.021Z,7.33
2022-11-25T12:12:06.381Z,7.38
2022-11-25T12:14:42.713Z,7.42
2022-11-25T12:17:18.451Z,7.43
2022-11-25T12:19:47.805Z,7.41
2022-11-25T12:22:35.721Z,7.44
2022-11-25T12:25:22.982Z,7.46
2022-11-25T12:28:17.556Z,7.46
2022-11-25T12:31:04.594Z,7.50
2022-11-25T12:33:51.127Z,7.50
2022-11-25T12:36:35.477Z,7.50
2022-11-25T12:39:45.654Z,7.46
2022-11-25T12:42:16.535Z,7.45
2022-11-25T12:44:49.001Z,7.45
2022-11-25T12:47:15.351Z,7.44
2022-11-25T12:49:49.162Z,7.43
2022-11-25T12:52:46.554Z,7.40
2022-11-25T12:55:28.831Z,7.33
2022-11-25T12:58:13.330Z,7.32
2022-11-25T13:00:48.766Z,7.32
2022-11-25T13:03:36.348Z,7.33
2022-11-25T13:06:31.937Z,7.29
2022-11-25T13:09:30.509Z,7.28
2022-11-25T13:12:18.269Z,7.28
2022-11-25T13:15:06.943Z,7.27
2022-11-25T13:17:36.071Z,7.26
2022-11-25T13:20:27.401Z,7.27
2022-11-25T13:23:07.957Z,7.27
2022-11-25T13:25:35.008Z,7.26
2022-11-25T13:28:03.545Z,7.27
2022-11-25T13:30:33.084Z,7.29
2022-11-25T13:33:11.844Z,7.32
2022-11-25T13:35:44.410Z,7.33
2022-11-25T13:38:29.074Z,7.36
2022-11-25T13:40:59.925Z,7.35
2022-11-25T13:43:26.427Z,7.36
2022-11-25T13:45:52.987Z,7.36
2022-11-25T13:48:26.827Z,7.40
2022-11-25T13:51:14.244Z,7.48
2022-11-25T13:53:40.607Z,7.50
2022-11-25T13:56:30.606Z,7.51
2022-11-25T13:59:12.300Z,7.53
2022-11-25T14:01:45.298Z,7.52
2022-11-25T14:04:12.858Z,7.51
2022-11-25T14:07:05.246Z,7.52
2022-11-25T14:09:41.716Z,7.53
2022-11-25T14:12:29.353Z,7.53
2022-11-25T14:15:03.616Z,7.52
2022-11-25T14:18:15.204Z,7.50
2022-11-25T14:20:47.689Z,7.48
2022-11-25T14:23:26.211Z,7.52
2022-11-25T14:25:56.640Z,7.56
2022-11-25T14:28:26.406Z,7.56
2022-11-25T14:30:54.687Z,7.58
2022-11-25T14:33:24.702Z,7.60
2022-11-25T14:35:55.986Z,7.64
2022-11-25T14:38:32.827Z,7.63
2022-11-25T14:41:03.797Z,7.63
2022-11-25T14:43:30.173Z,7.63
2022-11-25T14:46:17.407Z,7.64
2022-11-25T14:48:44.035Z,7.62
2022-11-25T14:51:12.220Z,7.63
2022-11-25T14:53:48.214Z,7.64
2022-11-25T14:56:16.907Z,7.61
2022-11-25T14:58:47.612Z,7.61
2022-11-25T15:01:22.425Z,7.62
2022-11-25T15:03:49.549Z,7.60
2022-11-25T15:06:16.205Z,7.60
2022-11-25T15:08:44.144Z,7.59
2022-11-25T15:11:14.022Z,7.58
2022-11-25T15:13:47.671Z,7.59
2022-11-25T15:16:18.639Z,7.54
2022-11-25T15:18:56.164Z,7.54
2022-11-25T15:21:53.742Z,7.54
2022-11-25T15:24:24.940Z,7.52
2022-11-25T15:26:52.764Z,7.49
2022-11-25T15:29:19.371Z,7.48
2022-11-25T15:31:46.073Z,7.40
2022-11-25T15:34:13.439Z,7.40
2022-11-25T15:36:39.953Z,7.40
2022-11-25T15:39:21.510Z,7.38
2022-11-25T15:42:15.375Z,7.37
2022-11-25T15:44:55.714Z,7.34
2022-11-25T15:47:29.254Z,7.34
2022-11-25T15:50:01.363Z,7.35
2022-11-25T15:52:29.938Z,7.37
2022-11-25T15:55:00.088Z,7.40
2022-11-25T15:57:31.850Z,7.39
2022-11-25T15:59:58.221Z,7.38
2022-11-25T16:02:30.746Z,7.41
2022-11-25T16:05:12.363Z,7.39
2022-11-25T16:07:51.342Z,7.38
2022-11-25T16:10:30.144Z,7.37
2022-11-25T16:13:25.859Z,7.37
2022-11-25T16:16:02.116Z,7.35
2022-11-25T16:19:18.253Z,7.38
2022-11-25T16:21:51.640Z,7.39
2022-11-25T16:24:35.687Z,7.40
2022-11-25T16:27:16.405Z,7.44
2022-11-25T16:30:18.126Z,7.44
2022-11-25T16:32:44.711Z,7.46
2022-11-25T16:35:15.779Z,7.45
2022-11-25T16:37:47.169Z,7.44
2022-11-25T16:40:15.651Z,7.42
2022-11-25T16:42:42.086Z,7.42
2022-11-25T16:45:19.766Z,7.39
2022-11-25T16:47:46.118Z,7.40
2022-11-25T16:50:16.694Z,7.39
2022-11-25T16:52:43.201Z,7.40
2022-11-25T16:55:09.571Z,7.42
2022-11-25T16:57:36.123Z,7.39
2022-11-25T17:00:08.390Z,7.41
2022-11-25T17:02:35.295Z,7.42
2022-11-25T17:05:19.201Z,7.40
2022-11-25T17:07:45.709Z,7.38
2022-11-25T17:10:12.239Z,7.37
2022-11-25T17:12:38.572Z,7.38
2022-11-25T17:15:06.400Z,7.33
2022-11-25T17:17:33.090Z,7.31
2022-11-25T17:19:59.482Z,7.32
2022-11-25T17:22:26.730Z,7.31
2022-11-25T17:24:53.835Z,7.31
2022-11-25T17:27:23.828Z,7.30
2022-11-25T17:29:50.229Z,7.31
2022-11-25T17:32:16.729Z,7.31
2022-11-25T17:34:43.204Z,7.31
2022-11-25T17:37:14.946Z,7.31
2022-11-25T17:39:41.510Z,7.29
2022-11-25T17:42:07.853Z,7.30
2022-11-25T17:44:34.257Z,7.30
2022-11-25T17:47:00.596Z,7.29
2022-11-25T17:49:26.971Z,7.29
2022-11-25T17:51:53.441Z,7.29
2022-11-25T17:54:19.793Z,7.27
2022-11-25T17:56:51.772Z,7.28
2022-11-25T17:59:31.991Z,7.27
2022-11-25T18:02:01.313Z,7.25
2022-11-25T18:04:38.972Z,7.24
2022-11-25T18:07:05.537Z,7.24
2022-11-25T18:09:31.903Z,7.22
2022-11-25T18:11:59.507Z,7.20
2022-11-25T18:14:33.332Z,7.18
2022-11-25T18:17:04.944Z,7.18
2022-11-25T18:19:31.902Z,7.18
2022-11-25T18:22:09.038Z,7.19
2022-11-25T18:24:37.055Z,7.20
2022-11-25T18:27:03.753Z,7.21
2022-11-25T18:29:30.120Z,7.19
2022-11-25T18:31:56.670Z,7.16
2022-11-25T18:34:23.598Z,7.11
2022-11-25T18:36:50.290Z,7.11
2022-11-25T18:39:16.722Z,7.03
2022-11-25T18:41:43.130Z,7.01
2022-11-25T18:44:43.543Z,6.99
2022-11-25T18:47:13.310Z,6.95
2022-11-25T18:49:39.854Z,6.95
2022-11-25T18:52:06.312Z,6.99
2022-11-25T18:54:32.656Z,7.01
2022-11-25T18:56:59.079Z,7.03
2022-11-25T18:59:28.023Z,7.04
2022-11-25T19:01:54.777Z,7.04
2022-11-25T19:04:21.179Z,7.05
2022-11-25T19:06:47.542Z,7.03
2022-11-25T19:09:13.918Z,7.03
2022-11-25T19:11:42.551Z,7.02
2022-11-25T19:14:12.173Z,7.01
2022-11-25T19:16:38.610Z,7.02
2022-11-25T19:19:05.106Z,7.02
2022-11-25T19:21:31.625Z,7.03
2022-11-25T19:23:58.026Z,7.01
2022-11-25T19:26:26.946Z,7.00
2022-11-25T19:28:55.922Z,7.01
2022-11-25T19:31:22.508Z,6.99
2022-11-25T19:33:49.671Z,7.00
2022-11-25T19:36:21.674Z,6.99
2022-11-25T19:38:48.069Z,7.00
2022-11-25T19:41:14.430Z,7.01
2022-11-25T19:43:40.984Z,7.01
2022-11-25T19:46:36.887Z,7.02
2022-11-25T19:49:14.973Z,7.02
2022-11-25T19:51:41.386Z,7.07
2022-11-25T19:54:12.625Z,7.08
2022-11-25T19:56:40.072Z,7.07
2022-11-25T19:59:06.712Z,7.13
2022-11-25T20:01:33.989Z,7.17
2022-11-25T20:04:00.708Z,7.14
2022-11-25T20:06:27.145Z,7.14
2022-11-25T20:08:53.504Z,7.15
2022-11-25T20:11:19.874Z,7.17
2022-11-25T20:13:46.912Z,7.18
2022-11-25T20:16:19.150Z,7.18
2022-11-25T20:18:45.701Z,7.19
2022-11-25T20:21:23.136Z,7.18
2022-11-25T20:23:50.057Z,7.16
2022-11-25T20:26:34.355Z,7.16
2022-11-25T20:29:00.764Z,7.13
2022-11-25T20:31:30.658Z,7.14
2022-11-25T20:33:57.286Z,7.14
2022-11-25T20:36:28.254Z,7.13
2022-11-25T20:38:55.893Z,7.13
2022-11-25T20:41:27.450Z,7.14
2022-11-25T20:43:54.372Z,7.13
2022-11-25T20:46:26.980Z,7.13
2022-11-25T20:48:54.029Z,7.16
2022-11-25T20:51:21.377Z,7.16
2022-11-25T20:53:58.103Z,7.14
2022-11-25T20:56:25.857Z,7.17
2022-11-25T20:58:52.257Z,7.15
2022-11-25T21:01:21.703Z,7.18
2022-11-25T21:03:49.090Z,7.19
2022-11-25T21:06:23.814Z,7.20
2022-11-25T21:08:51.327Z,7.19
2022-11-25T21:11:18.325Z,7.22
2022-11-25T21:13:45.007Z,7.25
2022-11-25T21:16:11.498Z,7.28
2022-11-25T21:18:38.415Z,7.27
2022-11-25T21:21:04.938Z,7.28
2022-11-25T21:23:35.597Z,7.36
2022-11-25T21:26:13.725Z,7.39
2022-11-25T21:28:41.643Z,7.42
2022-11-25T21:31:13.115Z,7.45
2022-11-25T21:33:39.556Z,7.48
2022-11-25T21:36:06.269Z,7.49
2022-11-25T21:38:32.653Z,7.52
2022-11-25T21:40:59.093Z,7.56
2022-11-25T21:43:30.419Z,7.59
2022-11-25T21:46:00.825Z,7.59
2022-11-25T21:48:27.609Z,7.59
2022-11-25T21:50:53.989Z,7.57
2022-11-25T21:53:20.356Z,7.57
2022-11-25T21:55:46.848Z,7.59
2022-11-25T21:58:33.449Z,7.62
2022-11-25T22:01:00.917Z,7.63
2022-11-25T22:03:29.166Z,7.64
2022-11-25T22:05:55.655Z,7.64
2022-11-25T22:08:23.209Z,7.64
2022-11-25T22:10:53.526Z,7.67
2022-11-25T22:13:38.182Z,7.68
2022-11-25T22:16:04.887Z,7.71
2022-11-25T22:18:32.803Z,7.69
2022-11-25T22:20:59.208Z,7.73
2022-11-25T22:23:26.034Z,7.76
2022-11-25T22:25:52.614Z,7.75
2022-11-25T22:28:24.491Z,7.76
2022-11-25T22:30:52.049Z,7.75
2022-11-25T22:33:18.984Z,7.74
2022-11-25T22:35:45.968Z,7.76
2022-11-25T22:38:16.827Z,7.76
2022-11-25T22:40:44.653Z,7.77
2022-11-25T22:43:27.570Z,7.75
2022-11-25T22:45:54.121Z,7.79
2022-11-25T22:48:24.002Z,7.79
2022-11-25T22:50:50.393Z,7.79
2022-11-25T22:53:18.002Z,7.80
2022-11-25T22:55:44.662Z,7.80
2022-11-25T22:58:14.119Z,7.81
2022-11-25T23:00:42.639Z,7.82
2022-11-25T23:03:18.632Z,7.83
2022-11-25T23:05:46.500Z,7.82
2022-11-25T23:08:26.918Z,7.82
2022-11-25T23:10:53.408Z,7.82
2022-11-25T23:13:20.445Z,7.79
2022-11-25T23:15:57.536Z,7.80
2022-11-25T23:18:34.009Z,7.77
2022-11-25T23:21:03.902Z,7.81
2022-11-25T23:23:30.378Z,7.80
2022-11-25T23:25:57.111Z,7.78
2022-11-25T23:28:23.685Z,7.77
2022-11-25T23:30:57.530Z,7.81
2022-11-25T23:33:48.112Z,7.81
2022-11-25T23:36:17.722Z,7.78
2022-11-25T23:38:46.400Z,7.79
2022-11-25T23:41:19.706Z,7.79
2022-11-25T23:43:46.055Z,7.78
2022-11-25T23:46:14.059Z,7.75
2022-11-25T23:48:40.449Z,7.74
2022-11-25T23:51:06.952Z,7.73
2022-11-25T23:53:33.501Z,7.69
2022-11-25T23:55:59.917Z,7.68
2022-11-25T23:58:26.397Z,7.62
